Terminal Aerodrome Forecast
Issued by NWS Grand Forks, ND

Home | Current Version | Previous Version | Graphics & Text | Print | Product List | Glossary On
Versions: 1 2 3 4 5 6 7 8 9 10 11 12 13 14
000
FTUS43 KFGF 152324
TAFFAR
TAF
KFAR 152324Z 1600/1624 23006KT P6SM SCT070 OVC090
     FM160200 22005KT P6SM FEW250
     FM161600 20013G21KT P6SM SKC=

USA.gov is the U.S. government's official web portal to all federal, state and local government web resources and services.